Time;durP1;ratioP1;P1;durP2;ratioP2;P2;SDS_P1;SDS_P2;PMS_P1;PMS_P2;Temp;Humidity;BMP_temperature;BMP_pressure;BME280_temperature;BME280_humidity;BME280_pressure;Samples;Min_cycle;Max_cycle;Signal;HPM_P1;HPM_P2
2022/11/16 00:02:20;;;;;;;;;;;;;;;10.48;78.52;99876.38;5333070;32;35570;-74
2022/11/16 00:05:22;;;;;;;;;;;;;;;9.96;80.25;99868.22;5302649;32;34686;-66
2022/11/16 00:08:29;;;;;;;;;;;;;;;10.14;79.01;99870.00;5322706;32;34634;-67
2022/11/16 00:11:32;;;;;;;;;;;;;;;10.33;79.60;99861.31;5329608;32;35333;-67
2022/11/16 00:14:34;;;;;;;;;;;;;;;10.42;78.60;99858.25;5328771;32;34418;-67
2022/11/16 00:17:36;;;;;;;;;;;;;;;10.68;77.36;99855.25;5337598;32;44979;-74
2022/11/16 00:20:38;;;;;;;;;;;;;;;10.60;78.06;99853.91;5331797;32;35167;-75
2022/11/16 00:23:40;;;;;;;;;;;;;;;10.56;76.95;99851.44;5326395;32;34929;-75
2022/11/16 00:26:42;;;;;;;;;;;;;;;10.37;78.18;99848.00;5312148;32;34638;-66
2022/11/16 00:29:43;;;;;;;;;;;;;;;10.50;78.81;99849.13;5319576;32;35313;-67
2022/11/16 00:32:45;;;;;;;;;;;;;;;10.67;76.83;99845.66;5319830;32;36211;-67
2022/11/16 00:35:47;;;;;;;;;;;;;;;11.17;75.07;99839.72;5313316;32;34719;-66
2022/11/16 00:38:50;;;;;;;;;;;;;;;10.82;77.39;99838.84;5340304;32;35215;-76
2022/11/16 00:41:52;;;;;;;;;;;;;;;11.35;73.19;99827.41;5302303;32;35277;-79
2022/11/16 00:44:54;;;;;;;;;;;;;;;9.97;79.07;99827.91;5313205;32;34340;-68
2022/11/16 00:47:56;;;;;;;;;;;;;;;10.36;79.22;99817.37;5297095;32;35451;-67
2022/11/16 00:51:01;;;;;;;;;;;;;;;9.90;80.21;99815.97;5318765;32;35727;-66
2022/11/16 00:54:04;;;;;;;;;;;;;;;10.09;79.70;99795.00;5340110;32;35631;-67
2022/11/16 00:57:05;;;;;;;;;;;;;;;9.61;83.34;99810.28;5308002;32;44552;-68
2022/11/16 01:00:08;;;;;;;;;;;;;;;9.69;82.69;99810.78;5343760;32;35422;-75
2022/11/16 01:03:10;;;;;;;;;;;;;;;9.58;83.54;99794.66;5313891;32;35267;-74
2022/11/16 01:06:12;;;;;;;;;;;;;;;9.39;84.68;99801.63;5312079;32;35229;-76
2022/11/16 01:09:14;;;;;;;;;;;;;;;9.71;83.14;99794.97;5304611;32;35592;-75
2022/11/16 01:12:16;;;;;;;;;;;;;;;9.89;82.67;99798.53;5309485;32;35737;-67
2022/11/16 01:15:19;;;;;;;;;;;;;;;9.65;83.61;99785.59;5323015;32;35535;-76
2022/11/16 01:18:20;;;;;;;;;;;;;;;9.89;82.70;99795.91;5323702;32;35834;-66
2022/11/16 01:21:23;;;;;;;;;;;;;;;10.30;81.26;99786.13;5344435;32;34924;-75
2022/11/16 01:24:25;;;;;;;;;;;;;;;10.10;80.15;99781.78;5327703;32;34948;-68
2022/11/16 01:27:27;;;;;;;;;;;;;;;9.56;84.09;99774.66;5337457;32;35667;-75
2022/11/16 01:30:29;;;;;;;;;;;;;;;9.91;82.53;99770.44;5322574;32;35344;-67
2022/11/16 01:33:31;;;;;;;;;;;;;;;10.16;82.22;99767.53;5317010;32;35171;-66
2022/11/16 01:36:35;;;;;;;;;;;;;;;10.03;81.41;99748.87;5320623;32;36102;-67
2022/11/16 01:39:37;;;;;;;;;;;;;;;9.84;83.21;99758.50;5310435;32;44564;-76
2022/11/16 01:42:39;;;;;;;;;;;;;;;9.81;83.82;99753.44;5345374;32;35146;-74
2022/11/16 01:45:41;;;;;;;;;;;;;;;9.79;84.77;99750.88;5331880;32;35014;-75
2022/11/16 01:48:43;;;;;;;;;;;;;;;9.70;84.12;99741.63;5332532;32;35051;-67
2022/11/16 01:51:46;;;;;;;;;;;;;;;10.06;82.34;99737.38;5304216;32;35533;-76
2022/11/16 01:54:49;;;;;;;;;;;;;;;10.03;83.07;99730.50;5327894;32;34925;-75
2022/11/16 01:57:50;;;;;;;;;;;;;;;9.65;84.86;99738.34;5343779;32;34772;-75
2022/11/16 02:00:52;;;;;;;;;;;;;;;9.78;83.92;99718.50;5329179;32;34481;-66
2022/11/16 02:03:54;;;;;;;;;;;;;;;9.33;85.37;99720.59;5333409;32;35221;-67
2022/11/16 02:06:56;;;;;;;;;;;;;;;9.82;84.78;99719.22;5286660;32;35642;-66
2022/11/16 02:10:09;;;;;;;;;;;;;;;9.13;85.53;99709.22;5331512;32;34859;-67
2022/11/16 02:13:18;;;;;;;;;;;;;;;9.73;84.35;99717.88;5327245;32;44696;-75
2022/11/16 02:16:19;;;;;;;;;;;;;;;9.37;85.75;99715.16;5312889;32;34894;-75
2022/11/16 02:19:36;;;;;;;;;;;;;;;9.65;85.52;99712.13;5326791;32;35396;-76
2022/11/16 02:22:51;;;;;;;;;;;;;;;9.95;83.20;99709.84;5303813;32;44488;-67
2022/11/16 02:26:12;;;;;;;;;;;;;;;9.72;84.77;99703.06;5330450;32;34777;-66
2022/11/16 02:29:37;;;;;;;;;;;;;;;9.89;85.74;99693.53;5317993;32;44935;-75
2022/11/16 02:32:39;;;;;;;;;;;;;;;10.44;80.08;99680.41;5323880;32;44485;-75
2022/11/16 02:35:40;;;;;;;;;;;;;;;10.03;82.36;99684.06;5344775;32;35048;-75
2022/11/16 02:38:45;;;;;;;;;;;;;;;9.62;84.29;99696.53;5311458;32;34737;-68
2022/11/16 02:41:47;;;;;;;;;;;;;;;10.01;82.49;99682.47;5347314;32;35582;-66
2022/11/16 02:44:49;;;;;;;;;;;;;;;9.71;84.88;99679.50;5331975;32;34970;-76
2022/11/16 02:47:51;;;;;;;;;;;;;;;10.10;83.47;99687.25;5317943;32;34857;-68
2022/11/16 02:50:53;;;;;;;;;;;;;;;10.16;82.18;99668.59;5328529;32;34583;-68
2022/11/16 02:53:59;;;;;;;;;;;;;;;9.68;84.78;99677.03;5321752;32;34687;-68
2022/11/16 02:57:01;;;;;;;;;;;;;;;9.89;84.27;99660.28;5332421;32;34633;-75
2022/11/16 03:00:03;;;;;;;;;;;;;;;10.16;82.58;99658.09;5331834;32;33996;-76
2022/11/16 03:03:11;;;;;;;;;;;;;;;10.17;82.19;99659.78;5341866;32;44839;-74
2022/11/16 03:06:15;;;;;;;;;;;;;;;10.14;81.80;99649.44;5297810;32;34924;-75
2022/11/16 03:09:18;;;;;;;;;;;;;;;10.53;81.24;99648.41;5307018;32;35041;-76
2022/11/16 03:12:23;;;;;;;;;;;;;;;10.24;82.43;99649.84;5326716;32;35569;-67
2022/11/16 03:15:25;;;;;;;;;;;;;;;9.74;83.95;99651.37;5320367;32;34898;-75
2022/11/16 03:18:27;;;;;;;;;;;;;;;9.66;85.08;99656.13;5331441;32;33575;-75
2022/11/16 03:21:32;;;;;;;;;;;;;;;10.19;83.81;99644.81;5320580;32;35287;-67
2022/11/16 03:24:33;;;;;;;;;;;;;;;10.75;78.79;99641.13;5336849;32;34253;-66
2022/11/16 03:27:58;;;;;;;;;;;;;;;10.34;80.72;99642.37;5320118;32;45159;-74
2022/11/16 03:31:02;;;;;;;;;;;;;;;9.99;82.18;99637.91;5301502;32;35362;-67
2022/11/16 03:34:05;;;;;;;;;;;;;;;10.00;83.42;99638.75;5336954;32;34237;-75
2022/11/16 03:37:07;;;;;;;;;;;;;;;10.45;81.70;99629.56;5316007;32;44637;-74
2022/11/16 03:40:09;;;;;;;;;;;;;;;10.08;83.90;99633.13;5343363;32;34599;-66
2022/11/16 03:43:11;;;;;;;;;;;;;;;10.02;82.66;99626.41;5326509;32;35067;-76
2022/11/16 03:46:13;;;;;;;;;;;;;;;10.40;82.14;99619.28;5322039;32;34769;-67
2022/11/16 03:49:15;;;;;;;;;;;;;;;10.36;82.04;99609.84;5340952;32;34352;-77
2022/11/16 03:52:17;;;;;;;;;;;;;;;10.48;80.86;99613.63;5325525;32;34614;-68
2022/11/16 03:55:18;;;;;;;;;;;;;;;9.74;83.98;99605.91;5333768;32;35799;-75
2022/11/16 03:58:20;;;;;;;;;;;;;;;9.93;84.51;99609.34;5305540;32;35294;-67
2022/11/16 04:01:22;;;;;;;;;;;;;;;10.10;83.14;99605.03;5330592;32;34234;-67
2022/11/16 04:24:37;;;;;;;;;;;;;;;10.67;80.92;99574.97;5308137;32;45080;-67
2022/11/16 04:37:51;;;;;;;;;;;;;;;10.63;79.48;99570.81;5342522;32;45180;-66
2022/11/16 04:40:53;;;;;;;;;;;;;;;10.72;79.10;99572.13;5332625;32;35210;-75
2022/11/16 04:43:56;;;;;;;;;;;;;;;10.85;78.38;99550.34;5346222;32;34455;-76
2022/11/16 04:47:07;;;;;;;;;;;;;;;10.52;79.90;99567.91;5329717;32;34362;-67
2022/11/16 04:50:09;;;;;;;;;;;;;;;10.44;80.74;99562.19;5329000;32;46138;-66
2022/11/16 04:53:10;;;;;;;;;;;;;;;10.80;79.64;99555.00;5345710;32;35739;-75
2022/11/16 04:56:12;;;;;;;;;;;;;;;10.10;82.25;99561.22;5333064;32;35181;-66
2022/11/16 04:59:14;;;;;;;;;;;;;;;10.19;81.91;99560.78;5348780;32;35043;-66
2022/11/16 05:02:16;;;;;;;;;;;;;;;10.34;81.40;99553.09;5331589;32;34859;-76
2022/11/16 05:05:18;;;;;;;;;;;;;;;10.02;83.74;99551.13;5327172;32;35077;-68
2022/11/16 05:08:20;;;;;;;;;;;;;;;9.60;85.96;99561.97;5314918;32;35969;-67
2022/11/16 05:11:22;;;;;;;;;;;;;;;10.61;82.17;99561.31;5316227;32;34886;-75
2022/11/16 05:14:24;;;;;;;;;;;;;;;10.95;78.64;99555.09;5328947;32;35469;-75
2022/11/16 05:17:26;;;;;;;;;;;;;;;11.24;76.67;99546.50;5330127;32;34847;-69
2022/11/16 05:27:11;;;;;;;;;;;;;;;10.00;82.54;99549.50;5318051;32;44534;-74
2022/11/16 05:30:13;;;;;;;;;;;;;;;9.78;83.78;99550.56;5344185;32;35280;-67
2022/11/16 05:33:16;;;;;;;;;;;;;;;10.14;82.70;99546.19;5323881;32;34792;-66
2022/11/16 05:36:18;;;;;;;;;;;;;;;10.43;81.40;99537.72;5333782;32;35058;-77
2022/11/16 05:39:20;;;;;;;;;;;;;;;10.19;83.00;99533.69;5326117;32;34613;-75
2022/11/16 05:42:22;;;;;;;;;;;;;;;9.68;86.10;99522.22;5328378;32;35462;-69
2022/11/16 05:45:24;;;;;;;;;;;;;;;10.19;84.14;99518.78;5329867;32;35477;-74
2022/11/16 05:48:26;;;;;;;;;;;;;;;10.67;81.57;99519.78;5309083;32;34643;-75
2022/11/16 05:51:27;;;;;;;;;;;;;;;10.55;80.39;99525.69;5336997;32;34362;-76
2022/11/16 05:54:30;;;;;;;;;;;;;;;10.14;81.84;99525.19;5315531;32;34696;-67
2022/11/16 05:57:32;;;;;;;;;;;;;;;10.14;82.51;99510.28;5339595;32;37121;-75
2022/11/16 06:00:34;;;;;;;;;;;;;;;10.41;81.30;99501.94;5329803;32;34342;-74
2022/11/16 06:03:36;;;;;;;;;;;;;;;10.19;81.14;99499.53;5322886;32;45146;-75
2022/11/16 06:06:38;;;;;;;;;;;;;;;10.40;81.14;99500.22;5311383;32;34690;-75
2022/11/16 06:09:40;;;;;;;;;;;;;;;11.07;78.91;99500.06;5310325;32;34330;-76
2022/11/16 06:12:41;;;;;;;;;;;;;;;10.04;83.51;99495.91;5328709;32;34844;-76
2022/11/16 06:15:44;;;;;;;;;;;;;;;10.38;82.48;99502.09;5317402;32;35843;-67
2022/11/16 06:18:51;;;;;;;;;;;;;;;10.98;79.83;99494.47;5331111;32;35113;-75
2022/11/16 06:21:52;;;;;;;;;;;;;;;10.99;79.17;99499.66;5320063;32;34975;-67
2022/11/16 06:24:54;;;;;;;;;;;;;;;10.55;82.39;99504.66;5336223;32;34629;-67
2022/11/16 06:27:57;;;;;;;;;;;;;;;10.65;81.00;99503.25;5325226;32;35424;-76
2022/11/16 06:30:58;;;;;;;;;;;;;;;10.85;78.07;99507.44;5310111;32;34096;-76
2022/11/16 06:34:00;;;;;;;;;;;;;;;10.81;79.47;99513.78;5338280;32;34656;-76
2022/11/16 06:37:04;;;;;;;;;;;;;;;11.33;78.07;99506.53;5322629;32;35086;-66
2022/11/16 06:40:06;;;;;;;;;;;;;;;10.80;78.55;99506.84;5342303;32;44861;-77
2022/11/16 06:43:08;;;;;;;;;;;;;;;9.91;84.76;99502.69;5320336;32;35663;-71
2022/11/16 06:46:10;;;;;;;;;;;;;;;10.96;80.80;99499.84;5325374;32;34898;-69
2022/11/16 06:49:12;;;;;;;;;;;;;;;10.61;82.57;99496.47;5331522;32;36016;-68
2022/11/16 06:52:14;;;;;;;;;;;;;;;11.59;76.33;99485.75;5315037;32;37731;-68
2022/11/16 06:55:15;;;;;;;;;;;;;;;11.32;76.57;99482.91;5330909;32;34379;-70
2022/11/16 06:58:17;;;;;;;;;;;;;;;10.49;81.77;99489.22;5320290;32;36379;-68
2022/11/16 07:01:19;;;;;;;;;;;;;;;11.32;77.43;99473.25;5338543;32;34237;-67
2022/11/16 07:04:21;;;;;;;;;;;;;;;11.28;77.40;99474.38;5326639;32;34446;-70
2022/11/16 07:07:23;;;;;;;;;;;;;;;11.14;77.97;99482.16;5310738;32;35431;-70
2022/11/16 07:10:25;;;;;;;;;;;;;;;11.52;76.22;99466.00;5334332;32;35511;-68
2022/11/16 07:13:27;;;;;;;;;;;;;;;10.80;79.90;99459.53;5321073;32;34336;-69
2022/11/16 07:16:29;;;;;;;;;;;;;;;10.89;79.02;99466.94;5325234;32;35299;-70
2022/11/16 07:19:31;;;;;;;;;;;;;;;10.58;81.23;99473.84;5306046;32;34275;-68
2022/11/16 07:22:32;;;;;;;;;;;;;;;11.23;77.95;99471.16;5339664;32;34229;-70
2022/11/16 07:25:34;;;;;;;;;;;;;;;11.80;74.87;99471.38;5333477;32;35435;-70
2022/11/16 07:28:36;;;;;;;;;;;;;;;11.03;79.94;99474.03;5332747;32;44639;-71
2022/11/16 07:31:44;;;;;;;;;;;;;;;11.52;75.94;99452.84;5339776;32;34209;-73
2022/11/16 07:34:46;;;;;;;;;;;;;;;11.89;73.76;99460.31;5318547;32;34798;-73
2022/11/16 07:37:48;;;;;;;;;;;;;;;10.52;80.10;99449.66;5336892;32;34322;-71
2022/11/16 07:40:49;;;;;;;;;;;;;;;10.60;81.92;99457.97;5330506;32;34200;-73
2022/11/16 07:43:52;;;;;;;;;;;;;;;10.79;79.57;99461.31;5346731;32;33429;-72
2022/11/16 07:46:55;;;;;;;;;;;;;;;10.58;80.62;99446.72;5317070;32;34167;-78
2022/11/16 07:49:57;;;;;;;;;;;;;;;10.47;82.41;99454.31;5329378;32;34340;-76
2022/11/16 07:52:59;;;;;;;;;;;;;;;10.51;81.80;99454.06;5323410;32;35450;-67
2022/11/16 07:56:01;;;;;;;;;;;;;;;11.41;79.32;99447.38;5311935;32;34523;-70
2022/11/16 07:59:04;;;;;;;;;;;;;;;11.89;76.13;99448.94;5323197;32;34487;-68
2022/11/16 08:02:08;;;;;;;;;;;;;;;10.76;81.57;99439.63;5323840;32;45574;-66
2022/11/16 08:05:10;;;;;;;;;;;;;;;11.37;77.87;99431.75;5331156;32;34473;-72
2022/11/16 08:08:12;;;;;;;;;;;;;;;10.63;81.82;99433.34;5316673;32;37569;-71
2022/11/16 08:11:14;;;;;;;;;;;;;;;10.41;83.23;99429.22;5319128;32;34634;-73
2022/11/16 08:14:18;;;;;;;;;;;;;;;10.46;83.85;99423.72;5337921;32;34324;-77
2022/11/16 08:17:20;;;;;;;;;;;;;;;10.34;83.74;99430.47;5326327;32;36167;-71
2022/11/16 08:20:21;;;;;;;;;;;;;;;10.38;83.50;99431.19;5335829;32;36183;-72
2022/11/16 08:23:29;;;;;;;;;;;;;;;11.42;79.20;99431.50;5325337;32;34324;-70
2022/11/16 08:26:31;;;;;;;;;;;;;;;11.04;79.67;99438.94;5334975;32;34282;-77
2022/11/16 08:29:33;;;;;;;;;;;;;;;11.17;79.50;99428.56;5332069;32;34236;-71
2022/11/16 08:32:35;;;;;;;;;;;;;;;11.63;77.53;99426.75;5331777;32;36540;-75
2022/11/16 08:35:37;;;;;;;;;;;;;;;12.09;75.32;99430.16;5337718;32;34841;-73
2022/11/16 08:38:39;;;;;;;;;;;;;;;11.73;75.86;99424.44;5325586;32;35016;-68
2022/11/16 08:41:43;;;;;;;;;;;;;;;10.84;80.47;99426.91;5340422;32;34211;-85
2022/11/16 08:44:45;;;;;;;;;;;;;;;10.95;79.90;99426.28;5321152;32;35334;-86
2022/11/16 08:47:48;;;;;;;;;;;;;;;11.54;78.06;99420.25;5325442;32;34835;-83
2022/11/16 08:50:49;;;;;;;;;;;;;;;11.32;78.37;99422.41;5328047;32;34242;-68
2022/11/16 08:54:11;;;;;;;;;;;;;;;11.62;74.84;99419.81;5317252;32;44785;-68
2022/11/16 08:57:13;;;;;;;;;;;;;;;10.33;81.83;99420.06;5337018;32;34357;-73
2022/11/16 09:00:15;;;;;;;;;;;;;;;11.80;77.21;99413.47;5325243;32;35565;-67
2022/11/16 09:03:17;;;;;;;;;;;;;;;11.26;79.19;99420.97;5342370;32;34297;-68
2022/11/16 09:06:19;;;;;;;;;;;;;;;11.87;76.28;99417.44;5299032;32;34077;-68
2022/11/16 09:09:22;;;;;;;;;;;;;;;11.64;77.15;99412.66;5315958;32;34277;-74
2022/11/16 09:12:24;;;;;;;;;;;;;;;11.37;77.45;99410.69;5326021;32;34368;-68
2022/11/16 09:15:26;;;;;;;;;;;;;;;12.32;73.29;99393.69;5321734;32;34994;-69
2022/11/16 09:18:28;;;;;;;;;;;;;;;10.98;78.46;99402.47;5339392;32;34166;-70
2022/11/16 09:21:31;;;;;;;;;;;;;;;12.03;74.73;99403.34;5311256;32;34599;-65
2022/11/16 09:24:33;;;;;;;;;;;;;;;12.26;73.03;99401.97;5325235;32;36201;-86
2022/11/16 09:27:35;;;;;;;;;;;;;;;12.08;74.30;99406.56;5334668;32;37185;-81
2022/11/16 09:30:37;;;;;;;;;;;;;;;11.19;75.94;99406.50;5327764;32;34317;-72
2022/11/16 09:33:39;;;;;;;;;;;;;;;11.30;77.38;99412.00;5341802;32;34334;-73
2022/11/16 09:36:41;;;;;;;;;;;;;;;11.04;79.30;99402.12;5317373;32;34362;-72
2022/11/16 09:39:43;;;;;;;;;;;;;;;11.35;77.89;99398.59;5339579;32;35436;-74
2022/11/16 09:42:51;;;;;;;;;;;;;;;11.86;76.04;99389.44;5333134;32;34910;-76
2022/11/16 09:45:53;;;;;;;;;;;;;;;11.33;80.18;99395.16;5337511;32;34535;-75
2022/11/16 09:48:55;;;;;;;;;;;;;;;10.53;81.65;99377.78;5328257;32;34450;-73
2022/11/16 09:51:59;;;;;;;;;;;;;;;11.47;77.98;99376.81;5321071;32;34289;-76
2022/11/16 09:55:02;;;;;;;;;;;;;;;11.56;79.34;99375.44;5343296;32;35299;-75
2022/11/16 09:58:07;;;;;;;;;;;;;;;11.52;77.30;99373.91;5307620;32;35480;-75
2022/11/16 10:01:24;;;;;;;;;;;;;;;11.14;80.74;99376.97;5333520;32;44474;-75
2022/11/16 10:04:37;;;;;;;;;;;;;;;11.92;75.67;99370.63;5310366;32;35391;-76
2022/11/16 10:07:49;;;;;;;;;;;;;;;11.74;76.86;99368.22;5300967;32;46378;-75
2022/11/16 10:10:54;;;;;;;;;;;;;;;10.76;81.15;99358.13;5334056;32;35587;-76
2022/11/16 10:14:04;;;;;;;;;;;;;;;11.06;81.59;99351.13;5329227;32;34304;-69
2022/11/16 10:17:24;;;;;;;;;;;;;;;10.91;80.91;99340.66;5323179;32;44658;-74
2022/11/16 10:20:26;;;;;;;;;;;;;;;11.40;79.98;99341.28;5311699;32;34304;-73
2022/11/16 10:23:50;;;;;;;;;;;;;;;11.76;75.55;99343.50;5309098;32;34647;-74
2022/11/16 10:26:54;;;;;;;;;;;;;;;11.62;76.62;99322.44;5330563;32;34669;-75
2022/11/16 10:29:58;;;;;;;;;;;;;;;12.19;75.55;99325.94;5311967;32;34301;-75
2022/11/16 10:33:04;;;;;;;;;;;;;;;11.85;75.49;99324.56;5328154;32;37161;-75
2022/11/16 10:36:12;;;;;;;;;;;;;;;12.60;72.70;99317.19;5318918;32;44395;-75
2022/11/16 10:39:15;;;;;;;;;;;;;;;12.09;75.51;99319.53;5332107;32;34295;-74
2022/11/16 10:42:19;;;;;;;;;;;;;;;11.43;77.87;99314.78;5285411;32;35950;-72
2022/11/16 10:45:32;;;;;;;;;;;;;;;11.41;76.61;99311.41;5328627;32;35468;-70
2022/11/16 10:48:41;;;;;;;;;;;;;;;11.85;75.69;99311.38;5318885;32;34390;-68
2022/11/16 10:51:43;;;;;;;;;;;;;;;12.24;74.10;99309.84;5310826;32;44516;-69
2022/11/16 10:54:45;;;;;;;;;;;;;;;12.54;72.08;99303.56;5334809;32;34357;-67
2022/11/16 10:57:57;;;;;;;;;;;;;;;11.43;75.97;99301.63;5325055;32;34559;-74
2022/11/16 11:00:59;;;;;;;;;;;;;;;11.55;76.33;99298.25;5317555;32;37129;-78
2022/11/16 11:04:10;;;;;;;;;;;;;;;12.25;74.46;99282.56;5332680;32;35478;-76
2022/11/16 11:07:23;;;;;;;;;;;;;;;11.08;78.87;99293.22;5299294;32;46655;-76
2022/11/16 11:10:33;;;;;;;;;;;;;;;11.91;76.48;99275.91;5329727;32;35614;-82
2022/11/16 11:13:35;;;;;;;;;;;;;;;12.45;73.89;99268.13;5328321;32;34142;-79
2022/11/16 11:16:37;;;;;;;;;;;;;;;11.65;76.21;99245.91;5322967;32;46412;-76
2022/11/16 11:19:39;;;;;;;;;;;;;;;10.99;80.48;99259.53;5334248;32;34337;-73
2022/11/16 11:22:54;;;;;;;;;;;;;;;11.15;77.77;99262.13;5315443;32;35524;-81
2022/11/16 11:25:57;;;;;;;;;;;;;;;10.86;81.97;99259.41;5344198;32;35326;-86
2022/11/16 11:28:59;;;;;;;;;;;;;;;11.56;77.02;99249.13;5328114;32;34307;-69
2022/11/16 11:32:12;;;;;;;;;;;;;;;11.31;79.39;99247.13;5330610;32;34336;-87
2022/11/16 11:35:24;;;;;;;;;;;;;;;11.50;77.07;99242.44;5322590;32;37215;-70
2022/11/16 11:38:26;;;;;;;;;;;;;;;12.24;74.50;99238.72;5313538;32;35000;-69
2022/11/16 11:41:31;;;;;;;;;;;;;;;11.52;76.85;99239.69;5313700;32;35465;-77
2022/11/16 11:44:36;;;;;;;;;;;;;;;11.61;77.46;99232.09;5317961;32;34387;-70
2022/11/16 11:47:58;;;;;;;;;;;;;;;11.79;75.56;99227.50;5337387;32;44739;-73
2022/11/16 11:51:12;;;;;;;;;;;;;;;11.77;75.32;99226.72;5330078;32;34438;-72
2022/11/16 11:54:17;;;;;;;;;;;;;;;11.36;77.71;99214.34;5321772;32;44567;-68
2022/11/16 11:57:20;;;;;;;;;;;;;;;11.03;79.80;99213.75;5344313;32;34789;-68
2022/11/16 12:00:24;;;;;;;;;;;;;;;11.85;77.07;99219.25;5314124;32;36000;-68
2022/11/16 12:03:45;;;;;;;;;;;;;;;11.77;77.01;99210.09;5331391;32;34869;-67
2022/11/16 12:06:59;;;;;;;;;;;;;;;11.53;78.36;99217.75;5285416;32;35851;-68
2022/11/16 12:10:04;;;;;;;;;;;;;;;11.07;80.21;99218.72;5327484;32;34237;-68
2022/11/16 12:13:25;;;;;;;;;;;;;;;11.41;78.41;99221.97;5324345;32;44818;-84
2022/11/16 12:16:27;;;;;;;;;;;;;;;11.52;78.65;99213.38;5327954;32;34359;-83
2022/11/16 12:19:35;;;;;;;;;;;;;;;12.48;74.98;99207.28;5331732;32;35038;-72
2022/11/16 12:22:56;;;;;;;;;;;;;;;11.84;76.81;99208.78;5312497;32;46081;-81
2022/11/16 12:26:10;;;;;;;;;;;;;;;12.37;75.17;99210.66;5326755;32;34213;-83
2022/11/16 12:29:28;;;;;;;;;;;;;;;11.85;76.36;99206.09;5324164;32;44636;-81
2022/11/16 12:32:53;;;;;;;;;;;;;;;12.27;75.16;99204.28;5321996;32;36309;-83
2022/11/16 12:36:02;;;;;;;;;;;;;;;12.28;76.00;99198.06;5310455;32;35709;-82
2022/11/16 12:39:07;;;;;;;;;;;;;;;12.52;74.23;99200.03;5332711;32;35322;-75
2022/11/16 12:42:12;;;;;;;;;;;;;;;12.64;73.57;99196.59;5308747;32;43999;-68
2022/11/16 12:45:23;;;;;;;;;;;;;;;12.28;76.03;99192.78;5325166;32;36380;-80
2022/11/16 12:48:59;;;;;;;;;;;;;;;12.45;74.83;99189.06;5314644;32;34153;-74
2022/11/16 12:52:05;;;;;;;;;;;;;;;11.93;76.64;99192.44;5285275;32;34419;-70
2022/11/16 12:55:06;;;;;;;;;;;;;;;12.22;76.61;99184.44;5338347;32;44570;-70
2022/11/16 12:58:44;;;;;;;;;;;;;;;12.56;75.17;99180.41;5323118;32;34601;-77
2022/11/16 13:02:04;;;;;;;;;;;;;;;12.45;74.68;99183.78;5334108;32;36077;-78
2022/11/16 13:05:11;;;;;;;;;;;;;;;11.70;78.27;99183.31;5308842;32;44708;-68
2022/11/16 13:08:16;;;;;;;;;;;;;;;12.26;75.62;99178.87;5305614;32;34369;-67
2022/11/16 13:11:17;;;;;;;;;;;;;;;12.34;74.61;99181.00;5334056;32;35474;-83
2022/11/16 13:14:23;;;;;;;;;;;;;;;12.62;74.33;99175.63;5304923;32;32685;-78
2022/11/16 13:17:30;;;;;;;;;;;;;;;12.63;73.61;99179.94;5327453;32;35416;-69
2022/11/16 13:20:34;;;;;;;;;;;;;;;12.45;75.27;99174.09;5302644;32;35457;-82
2022/11/16 13:23:45;;;;;;;;;;;;;;;11.62;79.31;99183.78;5318421;32;44648;-77
2022/11/16 13:26:55;;;;;;;;;;;;;;;11.71;77.51;99178.87;5324426;32;36119;-71
2022/11/16 13:30:14;;;;;;;;;;;;;;;11.45;79.98;99180.50;5327038;32;35537;-70
2022/11/16 13:33:26;;;;;;;;;;;;;;;11.71;79.07;99176.25;5330028;32;37953;-71
2022/11/16 13:36:31;;;;;;;;;;;;;;;12.66;74.66;99173.59;5328464;32;34320;-69
2022/11/16 13:39:49;;;;;;;;;;;;;;;12.51;75.25;99172.84;5334105;32;34727;-68
2022/11/16 13:42:56;;;;;;;;;;;;;;;12.50;74.74;99172.94;5341904;32;34423;-83
2022/11/16 13:45:58;;;;;;;;;;;;;;;12.05;77.55;99170.59;5322292;32;34141;-74
2022/11/16 13:49:00;;;;;;;;;;;;;;;11.17;80.41;99178.72;5334485;32;34245;-73
2022/11/16 13:52:05;;;;;;;;;;;;;;;10.92;82.35;99184.59;5312572;32;34218;-76
2022/11/16 13:55:28;;;;;;;;;;;;;;;11.66;79.66;99172.13;5318096;32;35362;-85
2022/11/16 13:58:30;;;;;;;;;;;;;;;11.90;78.77;99158.38;5329653;32;35606;-68
2022/11/16 14:01:52;;;;;;;;;;;;;;;11.58;80.26;99165.66;5320369;32;35561;-70
2022/11/16 14:04:54;;;;;;;;;;;;;;;12.15;77.50;99166.38;5325414;32;35944;-72
2022/11/16 14:07:56;;;;;;;;;;;;;;;12.71;74.93;99159.19;5317011;32;35461;-68
2022/11/16 14:10:58;;;;;;;;;;;;;;;11.91;77.98;99165.31;5329564;32;34093;-75
2022/11/16 14:14:04;;;;;;;;;;;;;;;11.56;80.00;99157.84;5315762;32;35514;-69
2022/11/16 14:17:06;;;;;;;;;;;;;;;12.17;76.76;99154.00;5324797;32;44842;-71
2022/11/16 14:20:09;;;;;;;;;;;;;;;12.54;75.47;99150.69;5337203;32;34319;-71
2022/11/16 14:23:17;;;;;;;;;;;;;;;12.59;74.82;99151.25;5312123;32;34361;-78
2022/11/16 14:26:25;;;;;;;;;;;;;;;11.55;78.06;99150.06;5329273;32;34384;-69
2022/11/16 14:29:45;;;;;;;;;;;;;;;11.20;81.83;99150.44;5313643;32;35509;-69
2022/11/16 14:32:54;;;;;;;;;;;;;;;11.62;79.80;99138.22;5317337;32;34349;-80
2022/11/16 14:35:56;;;;;;;;;;;;;;;12.41;75.99;99135.69;5331651;32;34676;-76
2022/11/16 14:38:59;;;;;;;;;;;;;;;12.23;76.68;99142.19;5318093;32;34100;-69
2022/11/16 14:42:17;;;;;;;;;;;;;;;11.73;76.64;99135.75;5325892;32;34323;-64
2022/11/16 14:45:23;;;;;;;;;;;;;;;11.38;80.10;99146.69;5330833;32;35600;-66
2022/11/16 14:48:25;;;;;;;;;;;;;;;11.23;81.59;99138.91;5327882;32;35591;-82
2022/11/16 14:51:31;;;;;;;;;;;;;;;11.29;79.22;99139.37;5331876;32;34428;-69
2022/11/16 14:54:37;;;;;;;;;;;;;;;11.38;80.16;99141.41;5328130;32;35395;-66
2022/11/16 14:57:39;;;;;;;;;;;;;;;11.18;80.85;99140.97;5340502;32;44678;-81
2022/11/16 15:00:41;;;;;;;;;;;;;;;10.77;82.29;99131.19;5323425;32;35915;-73
2022/11/16 15:03:53;;;;;;;;;;;;;;;11.13;81.29;99130.72;5325786;32;34322;-64
2022/11/16 15:06:56;;;;;;;;;;;;;;;11.10;82.20;99125.66;5309451;32;34554;-77
2022/11/16 15:09:58;;;;;;;;;;;;;;;11.24;82.76;99116.91;5329871;32;34278;-64
2022/11/16 15:13:00;;;;;;;;;;;;;;;11.10;82.54;99117.78;5336692;32;34074;-65
2022/11/16 15:16:15;;;;;;;;;;;;;;;10.85;83.42;99121.88;5328626;32;36347;-74
2022/11/16 15:19:17;;;;;;;;;;;;;;;11.45;82.08;99114.72;5338120;32;35773;-67
2022/11/16 15:22:19;;;;;;;;;;;;;;;11.45;79.99;99109.47;5324877;32;34455;-68
2022/11/16 15:25:22;;;;;;;;;;;;;;;11.34;80.35;99115.44;5323967;32;34361;-67
2022/11/16 15:28:25;;;;;;;;;;;;;;;11.36;80.56;99105.62;5326458;32;34206;-67
2022/11/16 15:31:27;;;;;;;;;;;;;;;11.56;79.78;99110.50;5312287;32;34309;-77
2022/11/16 15:34:31;;;;;;;;;;;;;;;11.60;79.65;99111.16;5317930;32;34543;-66
2022/11/16 15:37:33;;;;;;;;;;;;;;;11.98;78.67;99110.47;5314981;32;34360;-66
2022/11/16 15:40:35;;;;;;;;;;;;;;;11.21;81.40;99107.44;5331593;32;44898;-77
2022/11/16 15:43:39;;;;;;;;;;;;;;;11.14;82.76;99114.00;5314725;32;34386;-77
2022/11/16 15:46:56;;;;;;;;;;;;;;;11.74;80.02;99108.47;5315175;32;35437;-67
2022/11/16 15:49:58;;;;;;;;;;;;;;;10.90;81.87;99111.09;5330328;32;35752;-77
2022/11/16 15:52:59;;;;;;;;;;;;;;;10.92;84.44;99108.38;5321355;32;35481;-66
2022/11/16 15:56:02;;;;;;;;;;;;;;;11.53;81.50;99105.44;5339605;32;34318;-78
2022/11/16 15:59:10;;;;;;;;;;;;;;;11.33;80.79;99104.06;5311821;32;34760;-67
2022/11/16 16:02:16;;;;;;;;;;;;;;;11.51;80.68;99116.97;5340852;32;44657;-66
2022/11/16 16:05:19;;;;;;;;;;;;;;;11.22;81.80;99105.66;5315824;32;35462;-68
2022/11/16 16:08:26;;;;;;;;;;;;;;;11.58;79.21;99103.34;5315022;32;35828;-77
2022/11/16 16:11:28;;;;;;;;;;;;;;;10.48;85.28;99099.59;5327742;32;35423;-66
2022/11/16 16:14:30;;;;;;;;;;;;;;;11.12;82.93;99092.22;5310598;32;34289;-67
2022/11/16 16:17:32;;;;;;;;;;;;;;;11.57;80.63;99090.28;5329017;32;35113;-79
2022/11/16 16:20:34;;;;;;;;;;;;;;;11.77;79.17;99092.47;5313389;32;34707;-65
2022/11/16 16:23:43;;;;;;;;;;;;;;;11.34;79.93;99094.37;5336674;32;44440;-77
2022/11/16 16:26:44;;;;;;;;;;;;;;;10.79;81.39;99095.97;5326402;32;35570;-66
2022/11/16 16:29:47;;;;;;;;;;;;;;;10.66;84.80;99095.03;5320707;32;34204;-68
2022/11/16 16:32:49;;;;;;;;;;;;;;;10.55;85.73;99094.81;5329855;32;35827;-77
2022/11/16 16:35:51;;;;;;;;;;;;;;;10.79;83.48;99105.66;5325715;32;35723;-73
2022/11/16 16:38:53;;;;;;;;;;;;;;;11.10;82.17;99099.38;5331799;32;35047;-74
2022/11/16 16:41:55;;;;;;;;;;;;;;;11.38;80.64;99095.84;5316427;32;36203;-66